Time;durP1;ratioP1;P1;durP2;ratioP2;P2;SDS_P1;SDS_P2;PMS_P1;PMS_P2;Temp;Humidity;BMP_temperature;BMP_pressure;BME280_temperature;BME280_humidity;BME280_pressure;Samples;Min_cycle;Max_cycle;Signal;HPM_P1;HPM_P2
2023/05/30 00:00:26;;;;;;;4.13;3.73;;;18.70;72.40;;;;;;6120452;23;20425;-66
2023/05/30 00:02:53;;;;;;;3.77;3.43;;;18.60;72.50;;;;;;6097234;23;20524;-66
2023/05/30 00:05:20;;;;;;;4.50;4.10;;;18.50;72.70;;;;;;6091332;23;20865;-67
2023/05/30 00:07:48;;;;;;;4.57;3.93;;;18.50;72.70;;;;;;6113083;23;20817;-66
2023/05/30 00:10:16;;;;;;;4.50;3.90;;;18.40;72.70;;;;;;6120214;23;20418;-66
2023/05/30 00:12:46;;;;;;;4.47;3.47;;;18.50;72.80;;;;;;6106868;23;20434;-67
2023/05/30 00:15:16;;;;;;;4.57;4.17;;;18.40;72.90;;;;;;6091246;23;20481;-66
2023/05/30 00:17:43;;;;;;;3.97;3.57;;;18.40;73.20;;;;;;6096014;23;20459;-66
2023/05/30 00:20:11;;;;;;;4.13;3.73;;;18.40;73.70;;;;;;6117264;23;20444;-67
2023/05/30 00:22:40;;;;;;;4.53;4.10;;;18.30;73.70;;;;;;6119589;23;20424;-66
2023/05/30 00:25:09;;;;;;;4.53;3.97;;;18.30;74.00;;;;;;6120440;23;20426;-66
2023/05/30 00:27:37;;;;;;;8.53;4.43;;;18.30;74.30;;;;;;6100566;23;20496;-67
2023/05/30 00:30:05;;;;;;;4.30;3.90;;;18.30;74.30;;;;;;6117873;23;20445;-66
2023/05/30 00:32:32;;;;;;;5.13;3.90;;;18.20;74.80;;;;;;6120004;23;20478;-66
2023/05/30 00:34:59;;;;;;;4.60;4.20;;;18.10;74.70;;;;;;6119559;23;21065;-65
2023/05/30 00:37:26;;;;;;;4.70;4.20;;;18.00;75.10;;;;;;6113065;23;20548;-66
2023/05/30 00:39:53;;;;;;;6.40;3.93;;;18.00;75.60;;;;;;6108202;23;20884;-66
2023/05/30 00:42:20;;;;;;;5.03;3.70;;;18.00;76.00;;;;;;6097878;23;20442;-66
2023/05/30 00:44:49;;;;;;;4.40;4.00;;;17.90;76.20;;;;;;6108554;23;20473;-66
2023/05/30 00:47:16;;;;;;;4.33;3.93;;;17.90;76.30;;;;;;6100787;23;20538;-65
2023/05/30 00:49:43;;;;;;;4.10;3.77;;;17.80;76.20;;;;;;6097380;23;20505;-66
2023/05/30 00:52:11;;;;;;;4.90;4.50;;;17.80;76.50;;;;;;6092405;23;20832;-66
2023/05/30 00:54:41;;;;;;;5.60;4.37;;;17.80;76.50;;;;;;6096865;23;20442;-65
2023/05/30 00:57:09;;;;;;;4.30;3.90;;;17.70;76.80;;;;;;6094466;23;20454;-65
2023/05/30 00:59:36;;;;;;;4.63;4.00;;;17.80;77.00;;;;;;6112396;23;20476;-66
2023/05/30 01:02:06;;;;;;;4.43;3.80;;;17.70;77.10;;;;;;6110404;23;20453;-66
2023/05/30 01:04:33;;;;;;;4.83;4.43;;;17.70;77.30;;;;;;6118745;23;20473;-66
2023/05/30 01:07:00;;;;;;;4.40;4.00;;;17.70;77.50;;;;;;6094024;23;20978;-65
2023/05/30 01:09:28;;;;;;;4.10;3.73;;;17.70;77.80;;;;;;6096153;23;20442;-65
2023/05/30 01:12:07;;;;;;;5.80;4.10;;;17.60;77.80;;;;;;6119557;23;20457;-65
2023/05/30 01:14:43;;;;;;;4.63;4.23;;;17.60;78.30;;;;;;6105962;23;20441;-65
2023/05/30 01:17:18;;;;;;;4.80;4.23;;;17.70;78.80;;;;;;6099445;23;20489;-65
2023/05/30 01:20:04;;;;;;;5.13;4.07;;;17.50;79.00;;;;;;6111594;23;20486;-66
2023/05/30 01:22:41;;;;;;;4.53;4.13;;;17.50;79.20;;;;;;6090248;23;20423;-66
2023/05/30 01:25:22;;;;;;;3.67;3.37;;;17.50;79.50;;;;;;6114994;23;20467;-66
2023/05/30 01:28:08;;;;;;;4.50;4.10;;;17.50;79.90;;;;;;6103075;23;20484;-66
2023/05/30 01:30:39;;;;;;;5.40;4.60;;;17.40;80.20;;;;;;6119081;23;20512;-65
2023/05/30 01:33:08;;;;;;;4.20;3.73;;;17.40;80.70;;;;;;6092695;23;20438;-65
2023/05/30 01:35:35;;;;;;;4.20;3.80;;;17.40;80.90;;;;;;6105753;23;20480;-66
2023/05/30 01:38:02;;;;;;;3.73;3.37;;;17.30;81.30;;;;;;6117350;23;20460;-66
2023/05/30 01:40:30;;;;;;;4.90;3.97;;;17.30;81.50;;;;;;6117278;23;20778;-65
2023/05/30 01:43:04;;;;;;;5.93;4.63;;;17.20;81.70;;;;;;6117221;23;20525;-65
2023/05/30 01:45:40;;;;;;;4.40;4.00;;;17.20;81.90;;;;;;6104735;23;20467;-66
2023/05/30 01:48:13;;;;;;;4.70;4.20;;;17.10;82.10;;;;;;6103584;23;20493;-66
2023/05/30 01:50:44;;;;;;;4.43;4.03;;;17.10;82.30;;;;;;6104270;23;20437;-65
2023/05/30 01:53:26;;;;;;;4.50;3.97;;;17.10;82.60;;;;;;6119954;23;20440;-66
2023/05/30 01:55:56;;;;;;;4.60;4.20;;;17.00;83.10;;;;;;6110133;23;20469;-66
2023/05/30 01:58:24;;;;;;;4.13;3.83;;;16.90;83.40;;;;;;6095726;23;20468;-65
2023/05/30 02:00:53;;;;;;;4.20;3.80;;;16.90;84.00;;;;;;6110306;23;20476;-65
2023/05/30 02:03:23;;;;;;;4.40;4.00;;;16.80;84.40;;;;;;6112927;23;20517;-66
2023/05/30 02:05:50;;;;;;;4.47;4.07;;;16.80;84.80;;;;;;6116540;23;20419;-65
2023/05/30 02:08:17;;;;;;;4.57;4.13;;;16.80;85.20;;;;;;6120456;23;20449;-66
2023/05/30 02:10:44;;;;;;;5.27;4.17;;;16.70;85.70;;;;;;6121079;23;20425;-66
2023/05/30 02:13:11;;;;;;;5.50;4.53;;;16.60;86.10;;;;;;6118092;23;20441;-66
2023/05/30 02:15:40;;;;;;;5.63;4.37;;;16.60;86.70;;;;;;6104233;23;20945;-66
2023/05/30 02:18:08;;;;;;;4.43;4.00;;;16.60;87.00;;;;;;6112974;23;20528;-66
2023/05/30 02:20:36;;;;;;;5.40;4.40;;;16.50;87.40;;;;;;6119843;23;21000;-66
2023/05/30 02:23:03;;;;;;;5.13;4.43;;;16.50;87.60;;;;;;6117267;23;20916;-65
2023/05/30 02:25:30;;;;;;;5.23;4.10;;;16.50;87.80;;;;;;6120759;23;21009;-65
2023/05/30 02:27:57;;;;;;;5.13;4.30;;;16.40;88.30;;;;;;6120038;23;20461;-65
2023/05/30 02:30:24;;;;;;;4.80;3.97;;;16.40;88.10;;;;;;6102811;23;20950;-66
2023/05/30 02:32:52;;;;;;;5.47;4.37;;;16.40;88.80;;;;;;6120895;23;20479;-66
2023/05/30 02:35:20;;;;;;;4.40;4.00;;;16.40;88.40;;;;;;6095554;23;20442;-66
2023/05/30 02:37:47;;;;;;;4.60;4.17;;;16.40;88.50;;;;;;6110960;23;20534;-66
2023/05/30 02:40:14;;;;;;;4.57;4.17;;;16.60;88.60;;;;;;6120358;23;20520;-66
2023/05/30 02:42:41;;;;;;;4.30;3.73;;;16.40;88.70;;;;;;6120685;23;20460;-66
2023/05/30 02:45:09;;;;;;;5.40;4.80;;;16.40;88.80;;;;;;6101519;23;20803;-63
2023/05/30 02:47:36;;;;;;;4.63;4.00;;;16.40;88.90;;;;;;6109663;23;20798;-65
2023/05/30 02:50:06;;;;;;;5.63;4.50;;;16.40;89.00;;;;;;6117747;23;20496;-65
2023/05/30 02:52:33;;;;;;;4.33;3.93;;;16.40;89.30;;;;;;6090856;23;20832;-65
2023/05/30 02:55:01;;;;;;;4.87;4.17;;;16.40;89.60;;;;;;6107089;23;20425;-65
2023/05/30 02:57:28;;;;;;;4.93;4.43;;;16.40;90.10;;;;;;6106068;23;20533;-65
2023/05/30 02:59:56;;;;;;;4.87;4.03;;;16.30;90.60;;;;;;6090961;23;20434;-65
2023/05/30 03:02:23;;;;;;;4.53;3.93;;;16.30;90.70;;;;;;6113969;23;20417;-65
2023/05/30 03:04:50;;;;;;;4.30;3.90;;;16.20;91.10;;;;;;6119454;23;20855;-64
2023/05/30 03:07:18;;;;;;;4.47;4.03;;;16.20;91.00;;;;;;6116305;23;20975;-65
2023/05/30 03:09:45;;;;;;;4.33;3.93;;;16.20;91.30;;;;;;6117289;23;20445;-65
2023/05/30 03:12:13;;;;;;;4.07;3.67;;;16.20;91.40;;;;;;6120329;23;20438;-65
2023/05/30 03:14:40;;;;;;;4.87;4.47;;;16.20;91.60;;;;;;6108219;23;20793;-65
2023/05/30 03:17:08;;;;;;;4.33;3.93;;;16.10;91.70;;;;;;6101331;23;20460;-66
2023/05/30 03:19:36;;;;;;;5.23;4.67;;;16.10;92.20;;;;;;6120216;23;20909;-65
2023/05/30 03:22:03;;;;;;;5.90;5.00;;;16.00;92.40;;;;;;6106900;23;20464;-65
2023/05/30 03:24:31;;;;;;;4.93;4.43;;;16.00;92.60;;;;;;6107250;23;20608;-65
2023/05/30 03:26:58;;;;;;;5.50;5.00;;;15.90;92.80;;;;;;6099021;23;20869;-65
2023/05/30 03:29:25;;;;;;;5.20;4.50;;;15.90;93.00;;;;;;6120995;23;20410;-65
2023/05/30 03:31:52;;;;;;;4.53;4.13;;;15.90;93.30;;;;;;6118695;23;20430;-65
2023/05/30 03:34:21;;;;;;;5.80;4.00;;;15.90;93.50;;;;;;6096263;23;20496;-66
2023/05/30 03:36:52;;;;;;;4.90;4.40;;;15.90;93.70;;;;;;6118169;23;20516;-66
2023/05/30 03:39:19;;;;;;;6.20;4.80;;;15.80;93.80;;;;;;6120296;23;20425;-67
2023/05/30 03:41:48;;;;;;;4.30;3.90;;;15.80;94.10;;;;;;6120042;23;21010;-66
2023/05/30 03:44:15;;;;;;;5.03;4.43;;;15.80;94.20;;;;;;6105664;23;20560;-66
2023/05/30 03:46:42;;;;;;;5.40;4.40;;;15.80;94.40;;;;;;6119246;23;20875;-66
2023/05/30 03:49:09;;;;;;;5.50;5.00;;;15.70;94.60;;;;;;6110253;23;20529;-66
2023/05/30 03:51:36;;;;;;;5.00;4.50;;;15.70;94.80;;;;;;6113699;23;20464;-66
2023/05/30 03:54:03;;;;;;;6.53;4.40;;;15.70;95.00;;;;;;6116618;23;20909;-66
2023/05/30 03:56:31;;;;;;;4.73;4.33;;;15.70;95.20;;;;;;6104540;23;20469;-65
2023/05/30 03:59:00;;;;;;;4.30;3.90;;;15.70;95.30;;;;;;6091699;23;20534;-66
2023/05/30 04:01:27;;;;;;;4.93;4.40;;;15.70;95.50;;;;;;6119914;23;20836;-66
2023/05/30 04:03:55;;;;;;;5.03;4.53;;;15.60;95.60;;;;;;6119001;23;20624;-65
2023/05/30 04:06:24;;;;;;;4.60;4.20;;;15.70;95.80;;;;;;6111794;23;20453;-66
2023/05/30 04:08:51;;;;;;;4.67;4.27;;;15.60;95.90;;;;;;6114618;23;20497;-65
2023/05/30 04:11:18;;;;;;;5.03;4.43;;;15.60;96.10;;;;;;6119777;23;20434;-67
2023/05/30 04:13:45;;;;;;;5.33;4.83;;;15.60;96.30;;;;;;6119489;23;20430;-66
2023/05/30 04:16:13;;;;;;;5.77;4.20;;;15.60;96.30;;;;;;6118126;23;20473;-65
2023/05/30 04:18:43;;;;;;;4.93;4.43;;;15.60;96.40;;;;;;6108862;23;20468;-66
2023/05/30 04:21:11;;;;;;;4.23;3.83;;;15.70;96.50;;;;;;6108153;23;20470;-65
2023/05/30 04:23:40;;;;;;;5.10;4.70;;;15.70;96.60;;;;;;6101003;23;20438;-65
2023/05/30 04:26:08;;;;;;;8.07;5.20;;;15.70;96.60;;;;;;6116277;23;20552;-64
2023/05/30 04:28:36;;;;;;;6.17;4.23;;;15.70;96.70;;;;;;6090667;23;20513;-64
2023/05/30 04:31:05;;;;;;;4.60;4.20;;;15.70;96.70;;;;;;6108791;23;20512;-64
2023/05/30 04:33:35;;;;;;;5.27;4.60;;;15.80;96.70;;;;;;6107472;23;20525;-64
2023/05/30 04:36:04;;;;;;;5.57;4.27;;;15.80;96.80;;;;;;6105903;23;20460;-65
2023/05/30 04:38:32;;;;;;;4.83;4.30;;;15.80;96.80;;;;;;6108668;23;20438;-65
2023/05/30 04:41:02;;;;;;;4.50;4.10;;;15.80;96.70;;;;;;6100802;23;20529;-64
2023/05/30 04:43:29;;;;;;;4.83;4.43;;;15.80;96.80;;;;;;6099241;23;20444;-65
2023/05/30 04:46:00;;;;;;;5.07;4.57;;;15.90;96.80;;;;;;6113815;23;20964;-65
2023/05/30 04:48:28;;;;;;;5.10;4.40;;;15.90;96.90;;;;;;6108413;23;20517;-65
2023/05/30 04:50:59;;;;;;;5.20;4.70;;;15.90;96.90;;;;;;6101101;23;20439;-65
2023/05/30 04:53:26;;;;;;;7.00;4.73;;;15.90;96.80;;;;;;6110568;23;20502;-64
2023/05/30 04:55:53;;;;;;;5.07;4.57;;;16.00;96.70;;;;;;6088953;23;21015;-66
2023/05/30 04:58:20;;;;;;;5.90;4.70;;;16.10;96.70;;;;;;6090345;23;20473;-66
2023/05/30 05:00:48;;;;;;;4.60;4.20;;;16.10;96.70;;;;;;6097081;23;20817;-67
2023/05/30 05:03:16;;;;;;;5.00;4.20;;;16.10;96.50;;;;;;6110333;23;20474;-65
2023/05/30 05:05:44;;;;;;;6.07;4.30;;;16.20;96.50;;;;;;6104047;23;20470;-66
2023/05/30 05:08:12;;;;;;;5.07;4.50;;;16.20;96.50;;;;;;6101544;23;20441;-65
2023/05/30 05:10:39;;;;;;;4.70;3.90;;;16.30;96.50;;;;;;6095749;23;20437;-65
2023/05/30 05:13:06;;;;;;;5.40;4.53;;;16.40;96.40;;;;;;6107961;23;20461;-65
2023/05/30 05:15:33;;;;;;;5.10;4.60;;;16.40;96.40;;;;;;6105345;23;20845;-65
2023/05/30 05:18:00;;;;;;;4.87;4.40;;;16.50;96.50;;;;;;6104906;23;21027;-67
2023/05/30 05:20:28;;;;;;;6.37;4.37;;;16.50;96.40;;;;;;6113044;23;20442;-68
2023/05/30 05:22:55;;;;;;;5.30;4.47;;;16.40;96.30;;;;;;6098329;23;20723;-66
2023/05/30 05:25:23;;;;;;;5.20;4.30;;;16.50;96.40;;;;;;6106491;23;20476;-67
2023/05/30 05:27:50;;;;;;;5.53;4.23;;;16.50;96.30;;;;;;6103660;23;20441;-66
2023/05/30 05:30:17;;;;;;;5.60;4.50;;;16.50;96.20;;;;;;6116690;23;20670;-66
2023/05/30 05:32:44;;;;;;;5.73;4.50;;;16.60;96.10;;;;;;6115199;23;20531;-66
2023/05/30 05:35:11;;;;;;;5.03;4.53;;;16.60;96.10;;;;;;6095700;23;20437;-65
2023/05/30 05:37:38;;;;;;;4.60;4.20;;;16.70;96.20;;;;;;6103474;23;20482;-65
2023/05/30 05:40:08;;;;;;;5.77;4.40;;;16.70;96.10;;;;;;6108321;23;20797;-66
2023/05/30 05:42:36;;;;;;;6.73;4.30;;;16.70;96.00;;;;;;6114262;23;20583;-66
2023/05/30 05:45:03;;;;;;;4.90;4.40;;;16.70;96.00;;;;;;6115664;23;20913;-66
2023/05/30 05:47:30;;;;;;;4.50;4.10;;;16.80;96.10;;;;;;6116332;23;20449;-66
2023/05/30 05:49:57;;;;;;;5.17;3.97;;;16.90;96.00;;;;;;6100478;23;21001;-66
2023/05/30 05:52:26;;;;;;;4.30;3.90;;;17.00;95.70;;;;;;6104939;23;20521;-67
2023/05/30 05:54:54;;;;;;;5.00;4.53;;;17.10;95.50;;;;;;6099598;23;20496;-66
2023/05/30 05:57:21;;;;;;;5.23;4.10;;;17.20;95.40;;;;;;6105606;23;20506;-66
2023/05/30 05:59:49;;;;;;;5.73;4.50;;;17.30;95.10;;;;;;6117018;23;20437;-80
2023/05/30 06:02:16;;;;;;;5.17;4.20;;;17.40;94.80;;;;;;6100144;23;20456;-64
2023/05/30 06:04:43;;;;;;;5.00;4.00;;;17.50;94.60;;;;;;6102367;23;20440;-66
2023/05/30 06:07:10;;;;;;;4.60;3.87;;;17.60;94.40;;;;;;6092017;23;20537;-63
2023/05/30 06:09:37;;;;;;;4.57;3.60;;;17.70;94.10;;;;;;6100417;23;20450;-62
2023/05/30 06:12:05;;;;;;;4.40;4.00;;;17.90;93.90;;;;;;6098884;23;20454;-63
2023/05/30 06:14:32;;;;;;;4.10;3.70;;;17.90;93.60;;;;;;6094071;23;20441;-62
2023/05/30 06:17:01;;;;;;;5.47;3.83;;;18.00;93.40;;;;;;6117273;23;20524;-64
2023/05/30 06:19:28;;;;;;;4.30;3.90;;;18.00;93.20;;;;;;6111107;23;20755;-65
2023/05/30 06:21:55;;;;;;;4.83;4.30;;;18.10;93.50;;;;;;6097574;23;20436;-64
2023/05/30 06:24:23;;;;;;;4.13;3.50;;;18.10;93.10;;;;;;6118677;23;20477;-65
2023/05/30 06:26:50;;;;;;;3.73;3.40;;;18.20;93.10;;;;;;6111228;23;20541;-63
2023/05/30 06:29:16;;;;;;;4.40;3.70;;;18.20;92.80;;;;;;6106981;23;20991;-62
2023/05/30 06:31:44;;;;;;;4.27;3.87;;;18.30;92.90;;;;;;6114999;23;20495;-64
2023/05/30 06:34:12;;;;;;;4.87;4.33;;;18.30;92.70;;;;;;6110327;23;20437;-64
2023/05/30 06:36:39;;;;;;;4.13;3.67;;;18.50;92.60;;;;;;6116978;23;20481;-64
2023/05/30 06:39:06;;;;;;;5.37;3.80;;;18.50;92.30;;;;;;6117552;23;20450;-64
2023/05/30 06:41:34;;;;;;;5.37;4.13;;;18.60;92.20;;;;;;6119783;23;20986;-64
2023/05/30 06:44:01;;;;;;;4.70;3.60;;;18.60;92.00;;;;;;6119783;23;20761;-65
2023/05/30 06:46:28;;;;;;;4.53;3.60;;;18.70;91.80;;;;;;6115367;23;20930;-62
2023/05/30 06:48:55;;;;;;;6.20;4.17;;;18.80;91.70;;;;;;6120903;23;20441;-78
2023/05/30 06:51:23;;;;;;;8.20;4.10;;;18.90;91.40;;;;;;6115226;23;20445;-78
2023/05/30 06:53:51;;;;;;;5.10;3.17;;;19.10;91.20;;;;;;6118200;23;20804;-78
2023/05/30 06:56:18;;;;;;;4.43;3.80;;;19.10;90.90;;;;;;6111745;23;20967;-65
2023/05/30 06:58:44;;;;;;;4.20;3.80;;;19.30;90.70;;;;;;6117626;23;20525;-65
2023/05/30 07:01:12;;;;;;;5.23;4.10;;;19.30;90.40;;;;;;6106584;23;20523;-65
2023/05/30 07:03:39;;;;;;;7.57;3.60;;;19.50;90.20;;;;;;6117708;23;20710;-65
2023/05/30 07:06:06;;;;;;;5.57;3.90;;;19.50;89.80;;;;;;6118238;23;20480;-65
2023/05/30 07:08:35;;;;;;;7.73;4.10;;;19.70;89.90;;;;;;6109403;23;20970;-65
2023/05/30 07:11:02;;;;;;;4.73;4.23;;;19.70;89.60;;;;;;6118683;23;20952;-65
2023/05/30 07:13:29;;;;;;;5.00;3.97;;;19.80;89.40;;;;;;6120340;23;20517;-65
2023/05/30 07:15:56;;;;;;;4.60;3.80;;;19.80;88.90;;;;;;6118383;23;20540;-65
2023/05/30 07:18:23;;;;;;;4.90;4.20;;;19.90;88.80;;;;;;6090994;23;20446;-65
2023/05/30 07:20:49;;;;;;;4.10;3.70;;;20.00;88.60;;;;;;6091242;23;20924;-65
2023/05/30 07:23:17;;;;;;;4.13;3.57;;;20.10;87.40;;;;;;6090894;23;20430;-65
2023/05/30 07:25:45;;;;;;;4.97;3.83;;;20.20;87.30;;;;;;6105204;23;20472;-64
2023/05/30 07:28:12;;;;;;;4.17;3.63;;;20.30;87.10;;;;;;6096973;23;20479;-65
2023/05/30 07:30:39;;;;;;;5.00;3.50;;;20.40;87.10;;;;;;6090978;23;20958;-65
2023/05/30 07:33:06;;;;;;;4.47;3.90;;;20.50;86.40;;;;;;6091079;23;20488;-65
2023/05/30 07:35:33;;;;;;;5.13;3.87;;;20.70;86.10;;;;;;6091544;23;20485;-65
2023/05/30 07:38:00;;;;;;;4.53;3.50;;;20.80;85.60;;;;;;6095405;23;20449;-66
2023/05/30 07:40:27;;;;;;;4.37;3.97;;;20.90;85.00;;;;;;6091218;23;20434;-65
2023/05/30 07:42:56;;;;;;;5.67;4.30;;;21.00;85.00;;;;;;6090794;23;20514;-65
2023/05/30 07:45:23;;;;;;;5.63;3.80;;;21.20;84.20;;;;;;6089863;23;20454;-65
2023/05/30 07:47:50;;;;;;;7.53;3.30;;;21.50;84.30;;;;;;6095716;23;20508;-65
2023/05/30 07:50:17;;;;;;;5.20;3.53;;;21.70;83.60;;;;;;6091308;23;20476;-65
2023/05/30 07:52:44;;;;;;;5.60;3.87;;;22.10;82.90;;;;;;6090479;23;20462;-65
2023/05/30 07:55:11;;;;;;;4.93;3.90;;;22.00;82.10;;;;;;6107538;23;20514;-65
2023/05/30 07:57:38;;;;;;;5.10;3.90;;;22.20;81.70;;;;;;6106773;23;20458;-66
2023/05/30 08:00:08;;;;;;;4.87;3.70;;;22.50;81.10;;;;;;6091244;23;20513;-66
2023/05/30 08:02:35;;;;;;;4.20;3.40;;;22.60;79.60;;;;;;6103257;23;20443;-65
2023/05/30 08:05:03;;;;;;;4.27;3.30;;;22.50;80.00;;;;;;6119696;23;20830;-65
2023/05/30 08:07:32;;;;;;;4.23;3.60;;;22.60;80.40;;;;;;6120272;23;20924;-64
2023/05/30 08:09:58;;;;;;;4.13;3.73;;;22.90;79.60;;;;;;6111612;23;20465;-65
2023/05/30 08:12:28;;;;;;;4.07;3.33;;;23.00;78.10;;;;;;6099861;23;20441;-65
2023/05/30 08:14:56;;;;;;;6.97;4.23;;;23.20;78.90;;;;;;6117653;23;20832;-65
2023/05/30 08:17:25;;;;;;;5.00;3.40;;;23.60;77.80;;;;;;6090212;23;21036;-65
2023/05/30 08:19:53;;;;;;;4.27;3.13;;;24.00;76.80;;;;;;6093445;23;20438;-63
2023/05/30 08:22:21;;;;;;;5.47;3.60;;;24.00;76.10;;;;;;6090693;23;20505;-64
2023/05/30 08:24:50;;;;;;;4.97;3.40;;;24.20;76.30;;;;;;6091212;23;20438;-65
2023/05/30 08:27:17;;;;;;;3.23;2.93;;;24.30;74.40;;;;;;6092335;23;20967;-65
2023/05/30 08:29:44;;;;;;;4.20;3.80;;;24.50;74.80;;;;;;6101939;23;20442;-64
2023/05/30 08:32:11;;;;;;;5.90;3.73;;;24.70;73.80;;;;;;6094676;23;20536;-64
2023/05/30 08:34:40;;;;;;;4.20;3.40;;;24.80;74.00;;;;;;6119634;23;20418;-64
2023/05/30 08:37:07;;;;;;;4.47;3.73;;;25.00;73.80;;;;;;6115657;23;21177;-65
2023/05/30 08:39:34;;;;;;;5.30;3.83;;;25.30;73.30;;;;;;6119807;23;20491;-65
2023/05/30 08:42:01;;;;;;;4.40;4.00;;;25.50;71.80;;;;;;6119408;23;20444;-65
2023/05/30 08:44:29;;;;;;;4.77;3.90;;;25.50;69.10;;;;;;6119850;23;20432;-65
2023/05/30 08:46:57;;;;;;;7.43;3.50;;;25.60;69.60;;;;;;6117604;23;20473;-65
2023/05/30 08:49:25;;;;;;;5.63;3.20;;;25.70;68.50;;;;;;6119884;23;20421;-65
2023/05/30 08:51:54;;;;;;;4.37;3.60;;;25.90;68.20;;;;;;6119925;23;20433;-65
2023/05/30 08:54:23;;;;;;;4.20;3.80;;;25.90;67.20;;;;;;6118407;23;20885;-65
2023/05/30 08:56:59;;;;;;;4.57;3.70;;;25.90;68.30;;;;;;6119077;23;20445;-65
2023/05/30 08:59:26;;;;;;;4.20;3.43;;;26.20;66.50;;;;;;6120492;23;20456;-65
2023/05/30 09:01:55;;;;;;;3.57;3.27;;;26.40;65.80;;;;;;6120246;23;20471;-65
2023/05/30 09:04:23;;;;;;;6.17;3.90;;;26.30;64.60;;;;;;6114179;23;20477;-65
2023/05/30 09:06:54;;;;;;;4.20;3.57;;;25.70;65.90;;;;;;6114503;23;20841;-65
2023/05/30 09:09:23;;;;;;;4.20;3.57;;;25.70;67.10;;;;;;6121048;23;20936;-65
2023/05/30 09:11:51;;;;;;;4.17;3.77;;;25.80;66.00;;;;;;6120651;23;20425;-66
2023/05/30 09:14:18;;;;;;;5.07;3.27;;;25.60;67.20;;;;;;6120396;23;20823;-65
2023/05/30 09:16:45;;;;;;;5.53;3.70;;;25.80;66.70;;;;;;6118635;23;20449;-65
2023/05/30 09:19:12;;;;;;;4.83;3.80;;;26.10;66.70;;;;;;6119505;23;20434;-65
2023/05/30 09:21:40;;;;;;;4.07;3.70;;;26.20;64.50;;;;;;6119643;23;20490;-65
2023/05/30 09:24:09;;;;;;;4.47;3.83;;;26.00;65.50;;;;;;6119494;23;20437;-66
2023/05/30 09:26:36;;;;;;;3.43;3.07;;;26.10;66.40;;;;;;6119948;23;20522;-65
2023/05/30 09:29:09;;;;;;;4.20;3.50;;;26.30;65.60;;;;;;6121161;23;20474;-65
2023/05/30 09:31:37;;;;;;;4.20;3.67;;;26.30;64.90;;;;;;6103419;23;20524;-65
2023/05/30 09:34:06;;;;;;;5.07;3.63;;;26.00;66.20;;;;;;6094197;23;20449;-66
2023/05/30 09:36:33;;;;;;;3.63;3.27;;;26.20;65.90;;;;;;6114765;23;20488;-65
2023/05/30 09:39:04;;;;;;;3.73;3.20;;;26.50;65.50;;;;;;6108629;23;20445;-65
2023/05/30 09:41:33;;;;;;;4.27;3.70;;;26.60;64.30;;;;;;6091831;23;21118;-65
2023/05/30 09:44:04;;;;;;;4.87;3.40;;;27.00;64.60;;;;;;6113150;23;20434;-65
2023/05/30 09:46:32;;;;;;;4.87;3.30;;;27.40;64.90;;;;;;6119768;23;20461;-65
2023/05/30 09:48:59;;;;;;;3.60;3.30;;;27.90;63.80;;;;;;6118873;23;20433;-66
2023/05/30 09:51:26;;;;;;;4.90;3.40;;;28.40;63.30;;;;;;6120758;23;20966;-65
2023/05/30 09:54:00;;;;;;;5.70;3.70;;;28.80;62.40;;;;;;6118261;23;20717;-65
2023/05/30 09:56:35;;;;;;;4.17;3.37;;;29.30;60.80;;;;;;6121067;23;20437;-65
2023/05/30 09:59:07;;;;;;;4.73;3.20;;;29.60;60.40;;;;;;6119931;23;20486;-65
2023/05/30 10:01:40;;;;;;;4.70;3.40;;;30.00;59.20;;;;;;6097144;23;20431;-65
2023/05/30 10:04:15;;;;;;;6.40;3.70;;;30.00;58.50;;;;;;6098729;23;20460;-65
2023/05/30 10:06:43;;;;;;;3.47;3.17;;;30.00;58.90;;;;;;6120283;23;20464;-66
2023/05/30 10:09:11;;;;;;;4.80;3.27;;;30.00;58.40;;;;;;6119638;23;20513;-65
2023/05/30 10:11:41;;;;;;;3.70;3.07;;;30.00;58.00;;;;;;6120595;23;20441;-65
2023/05/30 10:14:08;;;;;;;3.77;3.30;;;30.00;58.20;;;;;;6119831;23;20434;-66
2023/05/30 10:16:40;;;;;;;3.80;3.50;;;30.20;57.70;;;;;;6102369;23;20529;-66
2023/05/30 10:19:13;;;;;;;3.50;3.20;;;30.50;57.40;;;;;;6108819;23;20475;-66
2023/05/30 10:21:42;;;;;;;4.00;3.13;;;30.70;57.20;;;;;;6120232;23;20823;-67
2023/05/30 10:24:14;;;;;;;4.17;3.77;;;30.90;56.70;;;;;;6119727;23;20437;-66
2023/05/30 10:26:47;;;;;;;4.00;3.50;;;31.10;56.20;;;;;;6120581;23;20466;-66
2023/05/30 10:29:15;;;;;;;5.20;3.60;;;31.10;55.50;;;;;;6119722;23;20500;-65
2023/05/30 10:31:43;;;;;;;3.70;3.40;;;31.40;55.40;;;;;;6096077;23;20465;-65
2023/05/30 10:34:13;;;;;;;7.40;3.80;;;31.40;55.10;;;;;;6095326;23;20504;-65
2023/05/30 10:36:42;;;;;;;4.00;2.87;;;31.40;55.40;;;;;;6120964;23;20436;-65
2023/05/30 10:39:28;;;;;;;3.77;3.43;;;31.50;55.10;;;;;;6119663;23;20461;-65
2023/05/30 10:42:09;;;;;;;5.23;3.60;;;31.60;54.00;;;;;;6120692;23;20432;-65
2023/05/30 10:44:47;;;;;;;3.63;3.20;;;31.70;53.60;;;;;;6119619;23;20449;-65
2023/05/30 10:47:28;;;;;;;3.30;3.00;;;31.90;53.20;;;;;;6091374;23;20469;-65
2023/05/30 10:49:58;;;;;;;4.30;3.90;;;32.10;53.10;;;;;;6117726;23;20490;-65
2023/05/30 10:52:31;;;;;;;4.87;3.37;;;32.30;52.70;;;;;;6120271;23;20500;-65
2023/05/30 10:55:00;;;;;;;3.70;3.40;;;32.10;52.70;;;;;;6119157;23;20557;-65
2023/05/30 10:57:32;;;;;;;3.67;2.80;;;31.70;52.70;;;;;;6120394;23;20421;-66
2023/05/30 11:00:08;;;;;;;4.00;3.60;;;31.60;53.20;;;;;;6116684;23;20925;-65
2023/05/30 11:02:36;;;;;;;3.80;3.50;;;31.70;52.80;;;;;;6091113;23;20419;-65
2023/05/30 11:05:07;;;;;;;4.07;3.27;;;31.90;52.50;;;;;;6095341;23;21067;-66
2023/05/30 11:07:37;;;;;;;4.30;3.33;;;32.00;52.70;;;;;;6117795;23;20473;-65
2023/05/30 11:10:07;;;;;;;3.77;3.20;;;32.00;52.20;;;;;;6109207;23;20979;-65
2023/05/30 11:12:41;;;;;;;3.93;3.57;;;31.60;52.10;;;;;;6090952;23;20426;-65
2023/05/30 11:15:09;;;;;;;3.97;3.20;;;31.00;53.10;;;;;;6098697;23;20521;-65
2023/05/30 11:17:38;;;;;;;5.30;3.40;;;30.80;53.40;;;;;;6120734;23;20432;-65
2023/05/30 11:20:08;;;;;;;3.17;2.90;;;30.90;53.70;;;;;;6092740;23;20422;-65
2023/05/30 11:22:35;;;;;;;2.87;2.67;;;31.00;53.80;;;;;;6091348;23;20433;-65
2023/05/30 11:25:18;;;;;;;3.20;2.90;;;31.00;54.40;;;;;;6098128;23;20492;-66
2023/05/30 11:28:12;;;;;;;4.57;3.33;;;30.80;53.50;;;;;;6120370;23;20530;-65
2023/05/30 11:30:44;;;;;;;3.43;3.13;;;31.00;53.20;;;;;;6101105;23;20432;-65
2023/05/30 11:33:12;;;;;;;4.13;3.20;;;31.30;53.00;;;;;;6120264;23;20475;-65
2023/05/30 11:35:40;;;;;;;3.60;3.30;;;31.70;52.50;;;;;;6117753;23;20489;-66
2023/05/30 11:38:07;;;;;;;4.33;3.63;;;31.90;52.70;;;;;;6119521;23;20425;-65
2023/05/30 11:40:34;;;;;;;6.30;3.47;;;31.80;52.10;;;;;;6120515;23;20793;-65
2023/05/30 11:43:04;;;;;;;6.33;3.20;;;31.40;52.70;;;;;;6115438;23;20513;-65
2023/05/30 11:45:32;;;;;;;4.40;2.80;;;31.30;52.90;;;;;;6096913;23;20492;-65
2023/05/30 11:48:04;;;;;;;3.70;3.37;;;31.40;52.70;;;;;;6118701;23;20479;-66
2023/05/30 11:50:36;;;;;;;4.00;3.57;;;31.50;52.10;;;;;;6120423;23;20762;-66
2023/05/30 11:53:09;;;;;;;4.03;3.00;;;30.90;52.50;;;;;;6119873;23;20766;-66
2023/05/30 11:55:36;;;;;;;3.67;3.00;;;30.70;52.80;;;;;;6118744;23;21022;-66
2023/05/30 11:58:05;;;;;;;3.70;2.93;;;31.00;53.20;;;;;;6119515;23;20512;-66
2023/05/30 12:00:33;;;;;;;4.00;3.47;;;31.00;53.30;;;;;;6112274;23;20426;-66
2023/05/30 12:03:00;;;;;;;4.80;3.00;;;31.00;52.90;;;;;;6090924;23;20430;-66
2023/05/30 12:05:29;;;;;;;4.30;3.50;;;30.70;52.50;;;;;;6091996;23;20499;-65
2023/05/30 12:07:56;;;;;;;4.53;3.20;;;30.50;52.90;;;;;;6109294;23;20477;-67
2023/05/30 12:10:30;;;;;;;3.70;3.30;;;30.50;52.80;;;;;;6101245;23;20449;-66
2023/05/30 12:12:57;;;;;;;3.97;2.73;;;31.00;52.70;;;;;;6090542;23;20507;-66
2023/05/30 12:15:25;;;;;;;3.47;3.10;;;31.30;52.40;;;;;;6091388;23;20530;-66
2023/05/30 12:17:52;;;;;;;3.60;3.23;;;31.80;51.60;;;;;;6091140;23;20446;-67
2023/05/30 12:20:21;;;;;;;3.37;3.07;;;32.20;50.90;;;;;;6116211;23;21029;-65
2023/05/30 12:22:50;;;;;;;3.63;3.10;;;32.30;50.20;;;;;;6119891;23;20944;-66
2023/05/30 12:25:17;;;;;;;4.50;3.40;;;32.00;50.30;;;;;;6093225;23;20447;-66
2023/05/30 12:27:46;;;;;;;3.43;2.73;;;31.40;51.10;;;;;;6091141;23;20474;-66
2023/05/30 12:30:15;;;;;;;4.47;3.17;;;31.10;51.60;;;;;;6115668;23;20484;-65
2023/05/30 12:32:44;;;;;;;4.27;3.50;;;31.10;51.40;;;;;;6116078;23;20537;-66
2023/05/30 12:35:13;;;;;;;5.50;3.40;;;31.10;51.30;;;;;;6094999;23;20468;-65
2023/05/30 12:37:40;;;;;;;4.43;3.00;;;30.70;51.60;;;;;;6119834;23;20904;-65
2023/05/30 12:40:08;;;;;;;3.53;3.17;;;30.40;52.10;;;;;;6118857;23;20525;-65
2023/05/30 12:42:37;;;;;;;4.50;3.23;;;30.70;52.10;;;;;;6117830;23;20421;-65
2023/05/30 12:45:05;;;;;;;3.50;3.03;;;31.00;51.40;;;;;;6091974;23;20473;-65
2023/05/30 12:47:32;;;;;;;3.53;3.10;;;31.20;51.30;;;;;;6120362;23;20475;-65
2023/05/30 12:50:01;;;;;;;4.70;3.37;;;31.10;51.10;;;;;;6120342;23;20421;-65
2023/05/30 12:52:29;;;;;;;3.87;3.57;;;30.70;51.00;;;;;;6118953;23;20770;-67
2023/05/30 12:54:57;;;;;;;4.97;3.20;;;30.60;51.70;;;;;;6090753;23;20493;-65